Acton, CA

3:33 PM PDT on April 01, 2015 (GMT -0700)
Bridle Path | | Change Station
CLOSE
Current Station
Personal Weather Station
Location: Acton, CA
Elevation: 2920 ft
Nearby Weather Stations
Active Advisory: High Wind Warning Active Notice: Public Information Statement

Elev 2920 ft 34.48 °N, 118.17 °W | Updated 6 seconds ago

Clear
Clear
75.8 °F
Feels Like 75 °F
N
9.0
Wind Variable Wind from NW
Gusts 11.0 mph

Today
High -- | Low -- °F
--% Chance of Precip.
Yesterday
High -- | Low -- °F
Precip. -- in
6:40 AM 7:13 PM
Waxing Gibbous, 94% visible
Pressure 29.89 in
Visibility 10.0 miles
Clouds Clear
Heat Index 75 °F
Dew Point 13 °F
Humidity 9%
Rainfall 0.00 in
Snow Depth Not available.
UV 8 out of 12
Pollen 9.50 out of 12
Air Quality Not available.
Flu Activity Not available.
METAR KPMD 012153Z AUTO 34008KT 10SM CLR 24/M13 A2994 RMK AO2 SLP121 T02391133

More Conditions Fewer Conditions

Pressure 29.89 in
Visibility 10.0 miles
Clouds Clear
Heat Index 75 °F
Dew Point 13 °F
Humidity 9%
Rainfall 0.00 in
Snow Depth Not available.
UV 8 out of 12
Pollen 9.50 out of 12
Air Quality Not available.
Flu Activity Not available.
METAR KPMD 012153Z AUTO 34008KT 10SM CLR 24/M13 A2994 RMK AO2 SLP121 T02391133

More Conditions Fewer Conditions

10-Day Weather Forecast

Almanac

Astronomy

Apr. 01, 2015 Rise Set
Actual Time
Civil Twilight
Nautical Twilight
Astronomical Twilight
Moon
Length of Visible Light
Length of Day
Tomorrow will be .
, % of the Moon is Illuminated

Today's Extremes

State Highs State Lows

Community

WunderPhotos

Upload Photos

1,810,096 photos uploaded!

WunderBlogs® & News

Nearby

Air Quality

  Air Quality AQ Index Pollutant
Not available.

Snow Depth

Station Depth Elevation

Earthquake Activity

City Distance Mag. Time & Date
Minimum magnitude displayed is 2.5.

Coastal Water Temperatures

Place Temperature

Stations

Nearby Weather Stations

Station Location Temp. Windchill Dew Point Humidity Wind Precip. Elev Updated Type
                   
High Wind Warning
Statement as of 12:41 PM PDT on April 01, 2015

... High Wind Warning in effect from 9 PM this evening to 9 am PDT
Thursday...

The National Weather Service in Los Angeles/Oxnard has issued a
High Wind Warning... which is in effect from 9 PM this evening to
9 am PDT Thursday.

* Winds... northwest winds increasing to 25 to 40 mph with gusts up
to 65 mph. The strongest winds will occur through the Interstate
5 corridor between midnight and 7 am.

* Impacts... strong winds can make driving difficult... especially
for drivers of high profile vehicles and vehicles towing
trailers. Winds this strong may down trees and power lines... and
cause property damage.

Precautionary/preparedness actions...

A High Wind Warning means that damaging high winds of 58 mph or
greater are likely or imminent. Secure all loose outdoor
furniture in advance of the onset of strong winds. Monitor the
latest forecasts on NOAA Weather Radio or your favorite media
source.